Time;durP1;ratioP1;P1;durP2;ratioP2;P2;SDS_P1;SDS_P2;PMS_P1;PMS_P2;Temp;Humidity;BMP_temperature;BMP_pressure;BME280_temperature;BME280_humidity;BME280_pressure;Samples;Min_cycle;Max_cycle;Signal;HPM_P1;HPM_P2
2023/02/20 00:00:38;;;;;;;19.10;14.73;;;;;18.20;101469.00;;;;2087652;28;20698;-52
2023/02/20 00:01:38;;;;;;;17.00;13.30;;;;;18.20;101467.00;;;;2087721;28;20693;-52
2023/02/20 00:02:38;;;;;;;16.80;12.83;;;;;18.20;101465.00;;;;2087761;28;20274;-51
2023/02/20 00:03:39;;;;;;;15.83;13.00;;;;;18.20;101464.00;;;;2086973;28;20320;-52
2023/02/20 00:04:39;;;;;;;16.40;12.80;;;;;18.20;101469.00;;;;2087717;28;20210;-52
2023/02/20 00:05:39;;;;;;;14.80;13.00;;;;;18.20;101479.00;;;;2087368;28;20217;-52
2023/02/20 00:06:40;;;;;;;17.60;12.20;;;;;18.20;101471.00;;;;2087327;28;20256;-50
2023/02/20 00:07:40;;;;;;;16.50;13.27;;;;;18.20;101469.00;;;;2087676;28;20215;-52
2023/02/20 00:08:40;;;;;;;19.50;13.40;;;;;18.20;101464.00;;;;2086518;28;20240;-52
2023/02/20 00:09:41;;;;;;;15.23;11.47;;;;;18.10;101470.00;;;;2086848;28;20214;-51
2023/02/20 00:10:41;;;;;;;13.47;12.00;;;;;18.10;101467.00;;;;2086955;28;20234;-52
2023/02/20 00:11:41;;;;;;;15.63;11.87;;;;;18.10;101466.00;;;;2087569;28;20222;-51
2023/02/20 00:12:42;;;;;;;17.37;13.00;;;;;18.10;101465.00;;;;2087715;28;20218;-51
2023/02/20 00:13:45;;;;;;;16.27;12.40;;;;;18.10;101453.00;;;;2086889;28;20266;-51
2023/02/20 00:14:46;;;;;;;16.08;12.65;;;;;18.10;101448.00;;;;2070428;28;20324;-53
2023/02/20 00:15:46;;;;;;;14.00;11.13;;;;;18.10;101445.00;;;;2078721;28;22909;-53
2023/02/20 00:16:47;;;;;;;15.93;12.20;;;;;18.10;101450.00;;;;2086861;28;20343;-50
2023/02/20 00:17:47;;;;;;;14.73;11.63;;;;;18.10;101453.00;;;;2080656;28;21029;-52
2023/02/20 00:18:47;;;;;;;15.27;11.73;;;;;18.10;101444.00;;;;2085960;28;20602;-52
2023/02/20 00:19:48;;;;;;;13.80;11.30;;;;;18.10;101443.00;;;;2086636;28;20240;-51
2023/02/20 00:20:48;;;;;;;11.80;10.23;;;;;18.10;101447.00;;;;2085529;28;20708;-52
2023/02/20 00:21:49;;;;;;;13.60;10.90;;;;;18.10;101448.00;;;;2087017;28;20741;-52
2023/02/20 00:22:49;;;;;;;13.50;10.83;;;;;18.10;101452.00;;;;2087291;28;20215;-53
2023/02/20 00:23:49;;;;;;;14.20;11.13;;;;;18.10;101452.00;;;;2087202;28;20263;-51
2023/02/20 00:24:50;;;;;;;11.50;10.13;;;;;18.10;101456.00;;;;2086965;28;20243;-52
2023/02/20 00:25:50;;;;;;;11.87;10.20;;;;;18.10;101451.00;;;;2086955;28;20284;-52
2023/02/20 00:26:51;;;;;;;12.53;9.80;;;;;18.10;101453.00;;;;2086760;28;20397;-52
2023/02/20 00:27:52;;;;;;;11.73;9.93;;;;;18.10;101453.00;;;;2086519;28;20231;-50
2023/02/20 00:28:52;;;;;;;11.70;9.50;;;;;18.00;101442.00;;;;2085951;28;20499;-50
2023/02/20 00:29:52;;;;;;;12.50;9.70;;;;;18.10;101442.00;;;;2086475;28;20226;-50
2023/02/20 00:30:52;;;;;;;13.50;10.30;;;;;18.10;101445.00;;;;2086680;28;20221;-51
2023/02/20 00:31:54;;;;;;;13.60;11.03;;;;;18.10;101443.00;;;;2087188;28;20229;-51
2023/02/20 00:32:54;;;;;;;9.90;8.90;;;;;18.00;101449.00;;;;2087012;28;20232;-51
2023/02/20 00:33:55;;;;;;;10.10;8.70;;;;;18.10;101440.00;;;;2086731;28;20305;-52
2023/02/20 00:34:55;;;;;;;12.80;10.57;;;;;18.00;101445.00;;;;2086776;28;21122;-53
2023/02/20 00:35:55;;;;;;;10.90;8.97;;;;;18.00;101450.00;;;;2086282;28;20683;-53
2023/02/20 00:36:56;;;;;;;10.07;8.43;;;;;18.00;101445.00;;;;2086621;28;20301;-53
2023/02/20 00:37:56;;;;;;;12.27;8.90;;;;;18.00;101444.00;;;;2086256;28;20683;-50
2023/02/20 00:38:56;;;;;;;11.17;9.10;;;;;18.00;101439.00;;;;2086916;28;20659;-51
2023/02/20 00:39:57;;;;;;;11.53;8.90;;;;;18.00;101441.00;;;;2086676;28;20309;-50
2023/02/20 00:40:57;;;;;;;11.00;9.10;;;;;18.00;101432.00;;;;2087415;28;20581;-52
2023/02/20 00:41:57;;;;;;;10.17;8.80;;;;;18.00;101432.00;;;;2086926;28;20581;-51
2023/02/20 00:42:58;;;;;;;9.40;8.40;;;;;18.00;101434.00;;;;2087529;28;20218;-51
2023/02/20 00:43:58;;;;;;;10.43;9.33;;;;;18.00;101436.00;;;;2086460;28;20221;-52
2023/02/20 00:44:58;;;;;;;10.20;8.80;;;;;18.00;101433.00;;;;2087466;28;20241;-53
2023/02/20 00:45:59;;;;;;;9.67;8.47;;;;;18.00;101425.00;;;;2087049;28;20215;-51
2023/02/20 00:46:59;;;;;;;9.67;8.07;;;;;18.00;101430.00;;;;2086991;28;20226;-52
2023/02/20 00:47:59;;;;;;;9.43;8.43;;;;;18.00;101418.00;;;;2086661;28;20218;-52
2023/02/20 00:49:00;;;;;;;10.53;8.57;;;;;18.00;101423.00;;;;2087243;28;20275;-50
2023/02/20 00:50:00;;;;;;;9.10;8.03;;;;;18.00;101410.00;;;;2086036;28;20218;-53
2023/02/20 00:51:00;;;;;;;9.43;8.23;;;;;18.00;101415.00;;;;2087453;28;20218;-53
2023/02/20 00:52:01;;;;;;;9.33;7.67;;;;;18.00;101413.00;;;;2087219;28;20275;-53
2023/02/20 00:53:02;;;;;;;9.17;7.70;;;;;17.90;101415.00;;;;2087353;28;20215;-51
2023/02/20 00:54:02;;;;;;;11.13;8.35;;;;;17.90;101410.00;;;;2087214;28;20556;-51
2023/02/20 00:55:03;;;;;;;15.87;8.20;;;;;17.90;101411.00;;;;2087244;28;20352;-53
2023/02/20 00:56:03;;;;;;;9.20;7.90;;;;;17.90;101406.00;;;;2087088;28;20221;-52
2023/02/20 00:57:03;;;;;;;10.27;7.97;;;;;17.90;101419.00;;;;2086780;28;20230;-51
2023/02/20 00:58:04;;;;;;;11.83;8.27;;;;;17.90;101416.00;;;;2085392;28;20689;-57
2023/02/20 00:59:04;;;;;;;11.30;8.63;;;;;17.90;101420.00;;;;2087353;28;20218;-55
2023/02/20 01:00:08;;;;;;;10.30;8.20;;;;;17.90;101411.00;;;;2087394;28;20237;-55
2023/02/20 01:01:08;;;;;;;9.00;7.80;;;;;17.90;101405.00;;;;2087186;28;20702;-52
2023/02/20 01:02:08;;;;;;;9.60;8.60;;;;;17.90;101412.00;;;;2086015;28;20223;-51
2023/02/20 01:03:09;;;;;;;10.57;8.60;;;;;17.90;101401.00;;;;2087257;28;20215;-52
2023/02/20 01:04:09;;;;;;;8.70;7.83;;;;;17.90;101400.00;;;;2086287;28;20310;-53
2023/02/20 01:05:09;;;;;;;10.37;8.10;;;;;17.90;101411.00;;;;2086692;28;20222;-52
2023/02/20 01:06:10;;;;;;;10.47;8.30;;;;;17.90;101396.00;;;;2087373;28;20214;-50
2023/02/20 01:07:10;;;;;;;9.30;7.60;;;;;17.90;101393.00;;;;2087086;28;20215;-51
2023/02/20 01:08:10;;;;;;;10.17;7.90;;;;;17.90;101395.00;;;;2086352;28;20219;-51
2023/02/20 01:09:11;;;;;;;10.20;7.20;;;;;17.90;101390.00;;;;2087257;28;20222;-52
2023/02/20 01:10:12;;;;;;;8.70;7.80;;;;;17.90;101402.00;;;;2086578;28;20309;-51
2023/02/20 01:11:12;;;;;;;8.53;7.40;;;;;17.90;101378.00;;;;2087357;28;20462;-51
2023/02/20 01:12:12;;;;;;;8.13;6.93;;;;;17.80;101374.00;;;;2086863;28;20305;-51
2023/02/20 01:13:13;;;;;;;9.33;7.43;;;;;17.90;101378.00;;;;2087216;28;20213;-50
2023/02/20 01:14:13;;;;;;;8.50;6.60;;;;;17.80;101378.00;;;;2087086;28;20263;-52
2023/02/20 01:15:14;;;;;;;8.20;7.40;;;;;17.80;101398.00;;;;2087000;28;20238;-50
2023/02/20 01:16:14;;;;;;;8.13;7.07;;;;;17.80;101366.00;;;;2087335;28;20574;-50
2023/02/20 01:17:15;;;;;;;7.87;6.70;;;;;17.80;101377.00;;;;2086952;28;20242;-52
2023/02/20 01:18:15;;;;;;;8.60;6.90;;;;;17.80;101373.00;;;;2086152;28;20218;-53
2023/02/20 01:19:16;;;;;;;7.27;6.57;;;;;17.80;101375.00;;;;2086413;28;20226;-52
2023/02/20 01:20:17;;;;;;;9.90;7.03;;;;;17.80;101376.00;;;;2086278;28;20256;-51
2023/02/20 01:21:17;;;;;;;8.23;7.00;;;;;17.80;101378.00;;;;2086476;28;21159;-52
2023/02/20 01:22:17;;;;;;;7.70;6.60;;;;;17.80;101375.00;;;;2087256;28;20222;-53
2023/02/20 01:23:18;;;;;;;7.40;6.50;;;;;17.80;101367.00;;;;2087207;28;20218;-50
2023/02/20 01:24:18;;;;;;;7.60;6.70;;;;;17.80;101368.00;;;;2087095;28;20213;-52
2023/02/20 01:25:19;;;;;;;7.23;6.30;;;;;17.80;101371.00;;;;2086955;28;20217;-53
2023/02/20 01:26:19;;;;;;;6.83;6.07;;;;;17.80;101356.00;;;;2087095;28;20245;-53
2023/02/20 01:27:20;;;;;;;9.20;6.93;;;;;17.80;101364.00;;;;2086519;28;20242;-51
2023/02/20 01:28:20;;;;;;;7.13;6.40;;;;;17.80;101365.00;;;;2085354;28;20225;-52
2023/02/20 01:29:20;;;;;;;7.90;7.10;;;;;17.80;101370.00;;;;2085065;28;20226;-52
2023/02/20 01:30:21;;;;;;;7.20;6.43;;;;;17.80;101370.00;;;;2086317;28;20217;-51
2023/02/20 01:31:21;;;;;;;7.10;6.40;;;;;17.80;101364.00;;;;2086289;28;20221;-51
2023/02/20 01:32:21;;;;;;;6.47;5.87;;;;;17.80;101364.00;;;;2086892;28;20214;-51
2023/02/20 01:33:22;;;;;;;7.10;5.97;;;;;17.80;101361.00;;;;2086878;28;20314;-52
2023/02/20 01:34:22;;;;;;;8.10;6.37;;;;;17.80;101369.00;;;;2087015;28;20239;-52
2023/02/20 01:35:22;;;;;;;8.90;6.53;;;;;17.80;101365.00;;;;2086932;28;20221;-51
2023/02/20 01:36:23;;;;;;;6.93;6.10;;;;;17.80;101367.00;;;;2086956;28;20241;-51
2023/02/20 01:37:23;;;;;;;7.13;6.43;;;;;17.80;101363.00;;;;2086844;28;20227;-52
2023/02/20 01:38:23;;;;;;;8.07;5.90;;;;;17.70;101362.00;;;;2085893;28;20344;-52
2023/02/20 01:39:26;;;;;;;7.40;6.23;;;;;17.70;101359.00;;;;2087147;28;20217;-51
2023/02/20 01:40:26;;;;;;;7.95;6.78;;;;;17.70;101357.00;;;;2086754;28;20222;-50
2023/02/20 01:41:26;;;;;;;7.13;6.43;;;;;17.70;101357.00;;;;2086689;28;20267;-51
2023/02/20 01:42:28;;;;;;;7.00;5.40;;;;;17.70;101351.00;;;;2086881;28;20229;-51
2023/02/20 01:43:29;;;;;;;6.80;5.60;;;;;17.70;101357.00;;;;2077838;28;20226;-52
2023/02/20 01:44:32;;;;;;;8.23;6.53;;;;;17.70;101355.00;;;;2077893;28;20211;-53
2023/02/20 01:45:34;;;;;;;7.10;5.75;;;;;17.70;101348.00;;;;2086834;28;20628;-51
2023/02/20 01:46:42;;;;;;;9.35;5.60;;;;;17.70;101355.00;;;;2086788;28;20221;-53
2023/02/20 01:47:43;;;;;;;7.43;6.30;;;;;17.70;101365.00;;;;2076419;28;20300;-56
2023/02/20 01:48:43;;;;;;;8.10;6.30;;;;;17.70;101359.00;;;;2076627;28;20219;-53
2023/02/20 01:49:46;;;;;;;6.40;5.40;;;;;17.70;101345.00;;;;2086705;28;20729;-52
2023/02/20 01:50:47;;;;;;;5.82;5.18;;;;;17.70;101345.00;;;;2077942;28;20212;-52
2023/02/20 01:51:51;;;;;;;6.03;5.43;;;;;17.70;101355.00;;;;2070241;28;20227;-51
2023/02/20 01:52:53;;;;;;;6.70;5.30;;;;;17.70;101339.00;;;;2078342;28;20297;-52
2023/02/20 01:53:53;;;;;;;8.40;6.35;;;;;17.70;101335.00;;;;2070239;28;20220;-52
2023/02/20 01:55:02;;;;;;;5.70;5.10;;;;;17.70;101340.00;;;;2078045;28;20242;-51
2023/02/20 01:56:03;;;;;;;6.93;5.95;;;;;17.70;101331.00;;;;2078022;28;20256;-51
2023/02/20 01:57:04;;;;;;;7.65;6.05;;;;;17.70;101343.00;;;;2070164;28;20977;-52
2023/02/20 01:58:09;;;;;;;7.77;6.00;;;;;17.70;101338.00;;;;2068445;28;20281;-52
2023/02/20 01:59:10;;;;;;;5.70;5.03;;;;;17.70;101346.00;;;;2078632;28;20226;-52
2023/02/20 02:00:13;;;;;;;5.50;5.00;;;;;17.70;101337.00;;;;2086694;28;20225;-50
2023/02/20 02:01:14;;;;;;;5.53;5.03;;;;;17.70;101345.00;;;;2077461;28;21008;-53
2023/02/20 02:02:14;;;;;;;6.80;5.57;;;;;17.70;101333.00;;;;2077508;28;20317;-51
2023/02/20 02:03:23;;;;;;;6.60;4.77;;;;;17.70;101334.00;;;;2077615;28;20226;-52
2023/02/20 02:04:23;;;;;;;6.80;5.55;;;;;17.70;101335.00;;;;2078679;28;20236;-51
2023/02/20 02:05:24;;;;;;;5.10;4.57;;;;;17.60;101330.00;;;;2070687;28;20243;-51
2023/02/20 02:06:24;;;;;;;5.80;4.87;;;;;17.70;101341.00;;;;2077823;28;20261;-52
2023/02/20 02:07:24;;;;;;;7.23;5.23;;;;;17.70;101324.00;;;;2077423;28;20349;-53
2023/02/20 02:08:25;;;;;;;7.00;5.13;;;;;17.70;101304.00;;;;2084821;28;20317;-52
2023/02/20 02:09:33;;;;;;;5.30;4.50;;;;;17.60;101331.00;;;;2077518;28;20218;-53
2023/02/20 02:10:48;;;;;;;5.82;5.20;;;;;17.70;101339.00;;;;2071382;28;20247;-51
2023/02/20 02:11:48;;;;;;;5.50;5.00;;;;;17.70;101329.00;;;;2079997;28;20691;-51
2023/02/20 02:12:49;;;;;;;6.30;4.70;;;;;17.70;101319.00;;;;2085968;28;20230;-51
2023/02/20 02:13:50;;;;;;;4.85;4.30;;;;;17.60;101316.00;;;;2085796;28;20214;-51
2023/02/20 02:14:50;;;;;;;5.97;5.37;;;;;17.70;101316.00;;;;2083684;28;20528;-51
2023/02/20 02:15:52;;;;;;;6.70;5.57;;;;;17.60;101309.00;;;;2086532;28;20551;-52
2023/02/20 02:17:16;;;;;;;6.00;5.03;;;;;17.60;101322.00;;;;2085404;28;20574;-52
2023/02/20 02:18:27;;;;;;;5.30;4.80;;;;;17.60;101328.00;;;;2078286;28;20225;-52
2023/02/20 02:20:01;;;;;;;5.55;4.82;;;;;17.60;101318.00;;;;2079695;28;20694;-53
2023/02/20 02:21:30;;;;;;;5.10;4.60;;;;;17.60;101310.00;;;;2056981;28;20217;-51
2023/02/20 02:22:49;;;;;;;5.20;4.70;;;;;17.60;101306.00;;;;2085754;28;20297;-51
2023/02/20 02:24:04;;;;;;;5.22;4.72;;;;;17.60;101306.00;;;;2079989;28;20288;-52
2023/02/20 02:25:19;;;;;;;6.00;5.03;;;;;17.60;101306.00;;;;2081116;28;20212;-50
2023/02/20 02:26:48;;;;;;;6.63;5.93;;;;;17.60;101301.00;;;;2078821;28;20221;-52
2023/02/20 02:28:31;;;;;;;4.57;4.18;;;;;17.60;101301.00;;;;2084894;28;20221;-51
2023/02/20 02:29:38;;;;;;;5.88;5.10;;;;;17.60;101292.00;;;;2085124;28;20255;-52
2023/02/20 02:31:03;;;;;;;5.07;4.50;;;;;17.60;101289.00;;;;2085455;28;21121;-51
2023/02/20 02:32:40;;;;;;;5.75;5.18;;;;;17.60;101285.00;;;;2085800;28;20205;-51
2023/02/20 02:34:15;;;;;;;6.32;4.90;;;;;17.60;101275.00;;;;2085622;28;20244;-52
2023/02/20 02:35:20;;;;;;;6.22;4.82;;;;;17.60;101277.00;;;;2067941;28;20209;-52
2023/02/20 02:36:35;;;;;;;5.68;4.65;;;;;17.60;101266.00;;;;2084792;28;20832;-51
2023/02/20 02:37:42;;;;;;;5.32;4.82;;;;;17.60;101264.00;;;;2079363;28;20225;-51
2023/02/20 02:39:07;;;;;;;6.80;5.40;;;;;17.60;101278.00;;;;2067995;28;20221;-51
2023/02/20 02:40:27;;;;;;;5.07;4.57;;;;;17.60;101261.00;;;;2064753;28;20217;-51
2023/02/20 02:41:40;;;;;;;6.53;4.70;;;;;17.60;101259.00;;;;2080327;28;20244;-51
2023/02/20 02:42:56;;;;;;;6.13;5.15;;;;;17.60;101256.00;;;;2071409;28;20218;-53
2023/02/20 02:43:59;;;;;;;5.15;4.65;;;;;17.60;101273.00;;;;2073954;28;20220;-51
2023/02/20 02:45:47;;;;;;;5.22;4.72;;;;;17.60;101271.00;;;;2079282;28;20210;-51
2023/02/20 02:46:55;;;;;;;5.70;4.82;;;;;17.60;101263.00;;;;2058436;28;20215;-50
2023/02/20 02:48:07;;;;;;;5.20;4.60;;;;;17.60;101268.00;;;;2051943;28;20220;-51
2023/02/20 02:49:17;;;;;;;6.38;5.40;;;;;17.50;101267.00;;;;2068802;28;20234;-52
2023/02/20 02:50:26;;;;;;;5.60;4.93;;;;;17.50;101257.00;;;;2079863;28;20214;-52
2023/02/20 02:51:28;;;;;;;5.90;5.30;;;;;17.60;101271.00;;;;2070321;28;20222;-51
2023/02/20 02:52:37;;;;;;;5.63;5.10;;;;;17.50;101269.00;;;;2070358;28;20235;-52
2023/02/20 02:53:38;;;;;;;5.40;4.90;;;;;17.50;101287.00;;;;2070683;28;20304;-51
2023/02/20 02:54:38;;;;;;;6.60;5.33;;;;;17.50;101272.00;;;;2078259;28;20221;-51
2023/02/20 02:55:39;;;;;;;6.00;5.13;;;;;17.60;101272.00;;;;2086123;28;20260;-51
2023/02/20 02:56:44;;;;;;;5.73;5.13;;;;;17.50;101270.00;;;;2086047;28;20210;-51
2023/02/20 02:57:45;;;;;;;6.40;5.30;;;;;17.60;101269.00;;;;2085496;28;20543;-52
2023/02/20 02:58:47;;;;;;;5.40;4.67;;;;;17.50;101262.00;;;;2084761;28;20268;-51
2023/02/20 02:59:48;;;;;;;5.93;5.32;;;;;17.50;101262.00;;;;2077450;28;20222;-52
2023/02/20 03:00:51;;;;;;;5.35;4.85;;;;;17.50;101269.00;;;;2069600;28;20211;-53
2023/02/20 03:01:55;;;;;;;5.97;5.38;;;;;17.50;101244.00;;;;2077436;28;20218;-52
2023/02/20 03:03:13;;;;;;;5.40;4.90;;;;;17.50;101250.00;;;;2069324;28;20215;-52
2023/02/20 03:04:14;;;;;;;5.93;4.85;;;;;17.50;101231.00;;;;2079932;28;20245;-52
2023/02/20 03:05:15;;;;;;;6.97;4.90;;;;;17.50;101246.00;;;;2076893;28;20236;-53
2023/02/20 03:06:29;;;;;;;5.70;5.10;;;;;17.50;101245.00;;;;2069306;28;20214;-53
2023/02/20 03:07:29;;;;;;;5.90;5.10;;;;;17.50;101237.00;;;;2079127;28;20213;-53
2023/02/20 03:08:41;;;;;;;5.57;4.67;;;;;17.50;101233.00;;;;2075427;28;20846;-52
2023/02/20 03:10:03;;;;;;;5.72;4.90;;;;;17.50;101256.00;;;;2070562;28;20222;-52
2023/02/20 03:11:07;;;;;;;7.10;5.53;;;;;17.50;101246.00;;;;2074916;28;20713;-53
2023/02/20 03:12:08;;;;;;;5.57;5.00;;;;;17.50;101247.00;;;;2079976;28;20228;-54
2023/02/20 03:13:11;;;;;;;6.97;5.63;;;;;17.50;101247.00;;;;2077934;28;20217;-53
2023/02/20 03:15:35;;;;;;;5.60;4.72;;;;;17.50;101243.00;;;;2087481;28;20778;-52
2023/02/20 03:17:04;;;;;;;5.90;5.00;;;;;17.50;101239.00;;;;2087127;28;20209;-53
2023/02/20 03:18:09;;;;;;;6.70;5.05;;;;;17.50;101232.00;;;;2085529;28;20294;-53
2023/02/20 03:19:12;;;;;;;6.00;5.40;;;;;17.40;101255.00;;;;2087388;28;20368;-53
2023/02/20 03:20:15;;;;;;;5.65;4.32;;;;;17.40;101242.00;;;;2086957;28;20729;-52
2023/02/20 03:21:18;;;;;;;5.93;5.38;;;;;17.50;101239.00;;;;2079544;28;20238;-53
2023/02/20 03:22:40;;;;;;;5.38;4.78;;;;;17.50;101247.00;;;;2079455;28;20210;-52
2023/02/20 03:23:42;;;;;;;5.90;5.40;;;;;17.10;101242.00;;;;2087421;28;20331;-52
2023/02/20 03:24:55;;;;;;;7.22;5.35;;;;;17.40;101244.00;;;;2088788;28;20210;-53
2023/02/20 03:26:01;;;;;;;6.10;5.45;;;;;17.40;101219.00;;;;2082389;28;20217;-52
2023/02/20 03:27:02;;;;;;;6.75;5.40;;;;;17.40;101240.00;;;;2080394;28;20207;-52
2023/02/20 03:28:10;;;;;;;4.93;4.30;;;;;17.40;101241.00;;;;2079538;28;20216;-52
2023/02/20 03:29:13;;;;;;;5.18;4.68;;;;;17.40;101242.00;;;;2072820;28;20238;-52
2023/02/20 03:30:24;;;;;;;5.75;4.57;;;;;17.40;101237.00;;;;2073240;28;20215;-53
2023/02/20 03:31:36;;;;;;;5.50;5.00;;;;;17.40;101239.00;;;;2082217;28;20338;-52
2023/02/20 03:43:24;;;;;;;6.85;5.15;;;;;17.40;101202.00;;;;2075832;28;20217;-53
2023/02/20 03:44:24;;;;;;;6.90;5.47;;;;;17.40;101229.00;;;;2068189;28;20965;-53
2023/02/20 03:45:25;;;;;;;5.60;5.00;;;;;17.40;101217.00;;;;2063321;28;20223;-53
2023/02/20 03:46:25;;;;;;;6.10;4.90;;;;;17.40;101220.00;;;;2070443;28;20298;-53
2023/02/20 03:47:26;;;;;;;6.33;5.47;;;;;17.40;101221.00;;;;2078499;28;20303;-52
2023/02/20 03:48:31;;;;;;;5.40;4.83;;;;;17.40;101210.00;;;;2077590;28;20217;-53
2023/02/20 03:49:37;;;;;;;4.80;4.28;;;;;17.40;101209.00;;;;2077329;28;20858;-53
2023/02/20 03:51:56;;;;;;;6.20;5.53;;;;;17.40;101219.00;;;;2076207;28;20300;-53
2023/02/20 03:52:56;;;;;;;6.17;4.87;;;;;17.40;101203.00;;;;2086962;28;20218;-53
2023/02/20 03:53:57;;;;;;;5.50;4.83;;;;;17.40;101212.00;;;;2086928;28;20225;-54
2023/02/20 03:54:57;;;;;;;5.70;5.00;;;;;17.40;101205.00;;;;2070282;28;20214;-53
2023/02/20 03:55:59;;;;;;;6.10;4.50;;;;;17.40;101214.00;;;;2070658;28;20206;-53
2023/02/20 03:57:09;;;;;;;6.03;4.70;;;;;17.40;101211.00;;;;2070225;28;20218;-53
2023/02/20 03:58:09;;;;;;;5.15;4.65;;;;;17.40;101217.00;;;;2069176;28;20229;-53
2023/02/20 03:59:22;;;;;;;5.43;4.60;;;;;17.40;101207.00;;;;2061639;28;20215;-52
2023/02/20 04:00:25;;;;;;;6.20;4.63;;;;;17.40;101211.00;;;;2065635;28;20736;-53
2023/02/20 04:01:26;;;;;;;5.97;4.57;;;;;17.40;101212.00;;;;2071230;28;21057;-53
2023/02/20 04:02:43;;;;;;;5.40;4.90;;;;;17.40;101212.00;;;;2070744;28;20449;-53
2023/02/20 04:03:44;;;;;;;5.82;5.22;;;;;17.40;101205.00;;;;2063694;28;20219;-53
2023/02/20 04:04:48;;;;;;;5.22;4.50;;;;;17.40;101214.00;;;;2062598;28;20209;-52
2023/02/20 04:05:51;;;;;;;5.20;4.68;;;;;17.40;101196.00;;;;2078836;28;20222;-52
2023/02/20 04:06:51;;;;;;;6.57;5.00;;;;;17.40;101217.00;;;;2070744;28;20386;-52
2023/02/20 04:08:05;;;;;;;5.20;4.70;;;;;17.40;101207.00;;;;2070019;28;20426;-53
2023/02/20 04:09:08;;;;;;;5.35;4.75;;;;;17.40;101200.00;;;;2074467;28;21321;-52
2023/02/20 04:10:10;;;;;;;5.30;4.53;;;;;17.40;101202.00;;;;2070965;28;20276;-53
2023/02/20 04:11:25;;;;;;;5.97;4.93;;;;;17.40;101204.00;;;;2070854;28;20218;-53
2023/02/20 04:12:27;;;;;;;6.78;5.38;;;;;17.30;101205.00;;;;2066352;28;21251;-52
2023/02/20 04:13:27;;;;;;;6.03;4.78;;;;;17.30;101215.00;;;;2072083;28;20225;-52
2023/02/20 04:14:28;;;;;;;5.40;4.80;;;;;17.30;101209.00;;;;2062096;28;20246;-52
2023/02/20 04:15:28;;;;;;;6.00;5.40;;;;;17.30;101207.00;;;;2062152;28;20222;-53
2023/02/20 04:16:28;;;;;;;6.00;4.83;;;;;17.30;101214.00;;;;2070456;28;20277;-53
2023/02/20 04:17:31;;;;;;;7.23;5.70;;;;;17.30;101209.00;;;;2070522;28;20223;-52
2023/02/20 04:18:31;;;;;;;5.70;5.03;;;;;17.40;101214.00;;;;2061322;28;20724;-52
2023/02/20 04:19:32;;;;;;;6.40;4.93;;;;;17.30;101207.00;;;;2070440;28;20233;-53
2023/02/20 04:20:32;;;;;;;5.40;4.70;;;;;17.30;101209.00;;;;2070439;28;20222;-51
2023/02/20 04:21:37;;;;;;;5.93;4.90;;;;;17.30;101177.00;;;;2062383;28;20674;-51
2023/02/20 04:22:39;;;;;;;4.80;4.28;;;;;17.30;101217.00;;;;2070888;28;20752;-51
2023/02/20 04:23:40;;;;;;;6.70;4.70;;;;;17.30;101204.00;;;;2070467;28;20753;-52
2023/02/20 04:24:51;;;;;;;5.15;4.65;;;;;17.30;101209.00;;;;2069384;28;20219;-52
2023/02/20 04:25:59;;;;;;;5.47;4.78;;;;;17.30;101209.00;;;;2063465;28;20266;-53
2023/02/20 04:26:59;;;;;;;5.45;4.95;;;;;17.30;101212.00;;;;2056432;28;20217;-54
2023/02/20 04:28:00;;;;;;;5.60;4.73;;;;;17.30;101200.00;;;;2053424;28;20763;-52
2023/02/20 04:29:01;;;;;;;5.75;4.70;;;;;17.30;101192.00;;;;2054422;28;20308;-52
2023/02/20 04:30:01;;;;;;;5.43;4.93;;;;;17.30;101196.00;;;;2062483;28;20266;-53
2023/02/20 04:31:01;;;;;;;5.20;4.70;;;;;17.30;101196.00;;;;2062238;28;20668;-53
2023/02/20 04:32:02;;;;;;;5.37;4.17;;;;;17.30;101197.00;;;;2070497;28;20680;-52
2023/02/20 04:33:02;;;;;;;8.07;5.07;;;;;17.30;101193.00;;;;2079201;28;20253;-51
2023/02/20 04:34:02;;;;;;;5.63;5.00;;;;;17.30;101194.00;;;;2079070;28;20210;-52
2023/02/20 04:35:03;;;;;;;4.80;4.27;;;;;17.30;101201.00;;;;2078545;28;20290;-51
2023/02/20 04:36:04;;;;;;;5.30;4.80;;;;;17.30;101202.00;;;;2078289;28;20209;-54
2023/02/20 04:37:09;;;;;;;6.93;4.90;;;;;17.30;101201.00;;;;2079208;28;20214;-53
2023/02/20 04:38:10;;;;;;;6.35;4.53;;;;;17.30;101199.00;;;;2077035;28;20217;-52
2023/02/20 04:39:10;;;;;;;4.90;3.90;;;;;17.30;101199.00;;;;2077504;28;20214;-52
2023/02/20 04:40:11;;;;;;;6.57;4.70;;;;;17.30;101196.00;;;;2079461;28;20295;-52
2023/02/20 04:41:11;;;;;;;5.40;4.72;;;;;17.30;101206.00;;;;2079281;28;20214;-52
2023/02/20 04:42:12;;;;;;;5.00;4.47;;;;;17.30;101202.00;;;;2078803;28;20214;-53
2023/02/20 04:43:12;;;;;;;5.50;5.00;;;;;17.30;101206.00;;;;2078707;28;20562;-51
2023/02/20 04:44:31;;;;;;;6.03;4.70;;;;;17.30;101202.00;;;;2079100;28;20209;-52
2023/02/20 04:45:31;;;;;;;6.10;4.82;;;;;17.30;101202.00;;;;2079399;28;20220;-51
2023/02/20 04:46:32;;;;;;;5.83;4.50;;;;;17.30;101210.00;;;;2079311;28;20252;-51
2023/02/20 04:47:32;;;;;;;6.40;5.10;;;;;17.30;101206.00;;;;2079118;28;20461;-52
2023/02/20 04:48:32;;;;;;;6.20;4.80;;;;;17.30;101208.00;;;;2078093;28;20283;-52
2023/02/20 04:49:33;;;;;;;11.03;4.90;;;;;17.30;101211.00;;;;2078400;28;20250;-51
2023/02/20 04:50:33;;;;;;;5.77;5.00;;;;;17.30;101201.00;;;;2078192;28;20226;-51
2023/02/20 04:51:34;;;;;;;6.37;5.03;;;;;17.30;101197.00;;;;2078399;28;20228;-51
2023/02/20 04:52:34;;;;;;;5.70;4.03;;;;;17.30;101202.00;;;;2078711;28;20218;-51
2023/02/20 04:53:34;;;;;;;5.80;4.63;;;;;17.20;101196.00;;;;2078914;28;20214;-51
2023/02/20 04:54:35;;;;;;;6.37;4.80;;;;;17.30;101201.00;;;;2079026;28;20585;-51
2023/02/20 04:55:35;;;;;;;6.67;4.77;;;;;17.30;101200.00;;;;2084196;28;21032;-51
2023/02/20 04:56:35;;;;;;;6.10;3.80;;;;;17.20;101187.00;;;;2086300;28;20217;-51
2023/02/20 04:57:36;;;;;;;6.53;5.00;;;;;17.30;101193.00;;;;2078218;28;20709;-52
2023/02/20 04:58:36;;;;;;;6.13;4.77;;;;;17.20;101190.00;;;;2085467;28;20817;-52
2023/02/20 04:59:36;;;;;;;6.67;4.63;;;;;17.20;101184.00;;;;2087118;28;20221;-51
2023/02/20 05:00:37;;;;;;;5.40;4.37;;;;;17.20;101188.00;;;;2087428;28;20228;-51
2023/02/20 05:01:37;;;;;;;4.47;4.07;;;;;17.20;101184.00;;;;2087361;28;20215;-52
2023/02/20 05:02:38;;;;;;;6.57;4.30;;;;;17.20;101189.00;;;;2087245;28;20302;-52
2023/02/20 05:03:38;;;;;;;5.93;4.50;;;;;17.30;101178.00;;;;2086663;28;20212;-51
2023/02/20 05:04:38;;;;;;;5.40;4.60;;;;;17.20;101185.00;;;;2086972;28;20217;-51
2023/02/20 05:05:39;;;;;;;6.23;3.93;;;;;17.20;101187.00;;;;2086816;28;20241;-51
2023/02/20 05:06:43;;;;;;;4.57;3.90;;;;;17.20;101179.00;;;;2087208;28;20702;-51
2023/02/20 05:07:44;;;;;;;5.05;4.10;;;;;17.20;101180.00;;;;2086811;28;20217;-51
2023/02/20 05:08:44;;;;;;;7.03;4.97;;;;;17.20;101184.00;;;;2086102;28;20243;-52
2023/02/20 05:09:45;;;;;;;5.50;4.13;;;;;17.20;101174.00;;;;2086997;28;20313;-51
2023/02/20 05:10:45;;;;;;;4.77;3.87;;;;;17.20;101154.00;;;;2087055;28;20263;-51
2023/02/20 05:11:45;;;;;;;5.00;4.23;;;;;17.20;101173.00;;;;2086367;28;20256;-51
2023/02/20 05:12:46;;;;;;;4.47;3.83;;;;;17.20;101183.00;;;;2085750;28;20300;-52
2023/02/20 05:13:46;;;;;;;5.90;4.73;;;;;17.20;101177.00;;;;2086237;28;20209;-51
2023/02/20 05:14:46;;;;;;;4.30;3.90;;;;;17.20;101189.00;;;;2086899;28;20241;-52
2023/02/20 05:15:47;;;;;;;5.23;3.90;;;;;17.20;101176.00;;;;2087311;28;20279;-51
2023/02/20 05:16:48;;;;;;;5.10;4.20;;;;;17.20;101180.00;;;;2087116;28;20467;-52
2023/02/20 05:17:48;;;;;;;5.35;4.00;;;;;17.20;101172.00;;;;2087226;28;20222;-52
2023/02/20 05:18:48;;;;;;;4.83;4.33;;;;;17.20;101168.00;;;;2086413;28;20213;-51
2023/02/20 05:19:48;;;;;;;5.83;4.33;;;;;17.20;101172.00;;;;2086442;28;21072;-51
2023/02/20 05:22:21;;;;;;;4.75;3.92;;;;;17.20;101164.00;;;;2087103;28;20210;-51
2023/02/20 05:23:21;;;;;;;5.65;4.50;;;;;17.20;101158.00;;;;2087117;28;20335;-51
2023/02/20 05:24:23;;;;;;;5.07;3.83;;;;;17.20;101163.00;;;;2087011;28;20247;-51
2023/02/20 05:25:23;;;;;;;4.63;3.50;;;;;17.20;101162.00;;;;2086582;28;20213;-51
2023/02/20 05:26:23;;;;;;;5.77;3.57;;;;;17.20;101164.00;;;;2087075;28;20847;-51
2023/02/20 05:27:24;;;;;;;5.60;4.07;;;;;17.20;101164.00;;;;2086986;28;20729;-50
2023/02/20 05:28:24;;;;;;;5.47;3.70;;;;;17.20;101164.00;;;;2085500;28;20716;-51